createdAt,value
2022-09-30T00:02:19.092Z,97647.53
2022-09-30T00:04:46.053Z,97641.78
2022-09-30T00:07:13.060Z,97641.78
2022-09-30T00:09:40.064Z,97642.88
2022-09-30T00:12:07.109Z,97637.13
2022-09-30T00:14:34.047Z,97633.56
2022-09-30T00:17:00.954Z,97637.41
2022-09-30T00:19:27.947Z,97633.56
2022-09-30T00:21:54.917Z,97621.78
2022-09-30T00:24:21.859Z,97633.56
2022-09-30T00:26:48.786Z,97636.59
2022-09-30T00:29:15.752Z,97644.00
2022-09-30T00:31:42.837Z,97646.72
2022-09-30T00:34:11.723Z,97647.81
2022-09-30T00:36:52.259Z,97650.00
2022-09-30T00:39:23.443Z,97636.31
2022-09-30T00:41:52.546Z,97641.25
2022-09-30T00:44:51.819Z,97646.97
2022-09-30T00:47:32.321Z,97643.41
2022-09-30T00:50:02.142Z,97646.72
2022-09-30T00:52:30.250Z,97645.91
2022-09-30T00:54:58.440Z,97648.91
2022-09-30T00:57:25.381Z,97653.56
2022-09-30T00:59:52.331Z,97657.41
2022-09-30T01:02:19.348Z,97673.00
2022-09-30T01:04:46.328Z,97676.00
2022-09-30T01:07:13.401Z,97675.72
2022-09-30T01:09:55.708Z,97658.47
2022-09-30T01:12:36.672Z,97661.22
2022-09-30T01:15:26.349Z,97649.44
2022-09-30T01:18:24.893Z,97661.22
2022-09-30T01:21:29.116Z,97660.41
2022-09-30T01:24:29.619Z,97653.28
2022-09-30T01:27:04.912Z,97654.38
2022-09-30T01:29:31.759Z,97651.09
2022-09-30T01:32:26.904Z,97656.00
2022-09-30T01:35:04.941Z,97666.16
2022-09-30T01:37:58.822Z,97651.91
2022-09-30T01:40:34.321Z,97662.03
2022-09-30T01:43:07.205Z,97665.84
2022-09-30T01:45:35.310Z,97670.78
2022-09-30T01:48:22.205Z,97682.81
2022-09-30T01:51:24.466Z,97672.44
2022-09-30T01:53:57.971Z,97677.34
2022-09-30T01:56:30.621Z,97675.44
2022-09-30T01:59:10.048Z,97685.00
2022-09-30T02:01:45.153Z,97680.66
2022-09-30T02:04:30.487Z,97668.06
2022-09-30T02:07:00.452Z,97673.53
2022-09-30T02:09:29.833Z,97672.69
2022-09-30T02:11:56.789Z,97673.53
2022-09-30T02:15:06.105Z,97675.69
2022-09-30T02:18:09.214Z,97672.97
2022-09-30T02:20:38.603Z,97670.78
2022-09-30T02:23:26.959Z,97671.59
2022-09-30T02:26:11.884Z,97672.94
2022-09-30T02:28:42.411Z,97675.69
2022-09-30T02:31:10.643Z,97671.34
2022-09-30T02:34:14.068Z,97662.56
2022-09-30T02:37:02.486Z,97674.31
2022-09-30T02:39:48.246Z,97668.84
2022-09-30T02:42:29.754Z,97672.69
2022-09-30T02:45:01.321Z,97669.69
2022-09-30T02:47:48.932Z,97679.81
2022-09-30T02:50:24.517Z,97686.09
2022-09-30T02:53:08.284Z,97691.56
2022-09-30T02:55:39.880Z,97688.00
2022-09-30T02:58:14.792Z,97686.09
2022-09-30T03:00:41.909Z,97684.44
2022-09-30T03:03:35.678Z,97683.88
2022-09-30T03:06:02.913Z,97686.09
2022-09-30T03:08:29.887Z,97688.81
2022-09-30T03:10:56.845Z,97686.09
2022-09-30T03:14:02.718Z,97691.81
2022-09-30T03:16:44.624Z,97691.00
2022-09-30T03:19:28.453Z,97685.50
2022-09-30T03:21:59.268Z,97686.63
2022-09-30T03:24:47.720Z,97685.81
2022-09-30T03:27:27.943Z,97686.63
2022-09-30T03:30:05.736Z,97683.06
2022-09-30T03:32:57.221Z,97690.16
2022-09-30T03:35:39.149Z,97687.44
2022-09-30T03:38:27.510Z,97690.16
2022-09-30T03:41:26.558Z,97694.84
2022-09-30T03:43:59.815Z,97696.47
2022-09-30T03:46:52.039Z,97697.84
2022-09-30T03:49:31.544Z,97711.50
2022-09-30T03:51:58.863Z,97710.69
2022-09-30T03:54:26.159Z,97715.31
2022-09-30T03:56:53.111Z,97717.25
2022-09-30T03:59:23.730Z,97717.53
2022-09-30T04:01:51.085Z,97719.44
2022-09-30T04:04:18.252Z,97724.91
2022-09-30T04:06:45.333Z,97725.16
2022-09-30T04:09:12.315Z,97731.47
2022-09-30T04:11:39.257Z,97727.91
2022-09-30T04:14:06.261Z,97727.06
2022-09-30T04:16:33.761Z,97733.38
2022-09-30T04:19:00.822Z,97733.38
2022-09-30T04:21:30.421Z,97733.38
2022-09-30T04:23:57.396Z,97729.81
2022-09-30T04:26:24.338Z,97734.19
2022-09-30T04:28:52.704Z,97731.47
2022-09-30T04:31:21.524Z,97728.72
2022-09-30T04:33:48.572Z,97724.34
2022-09-30T04:36:15.552Z,97731.72
2022-09-30T04:38:42.675Z,97729.28
2022-09-30T04:41:12.362Z,97735.56
2022-09-30T04:43:39.247Z,97727.63
2022-09-30T04:46:06.593Z,97727.63
2022-09-30T04:48:33.526Z,97728.69
2022-09-30T04:51:01.031Z,97725.16
2022-09-30T04:53:28.417Z,97731.44
2022-09-30T04:56:01.564Z,97729.78
2022-09-30T04:58:32.237Z,97731.97
2022-09-30T05:01:11.282Z,97734.72
2022-09-30T05:03:38.309Z,97739.38
2022-09-30T05:06:05.631Z,97739.38
2022-09-30T05:08:34.084Z,97744.56
2022-09-30T05:11:03.005Z,97737.47
2022-09-30T05:13:34.628Z,97743.75
2022-09-30T05:16:02.413Z,97747.84
2022-09-30T05:18:29.621Z,97747.31
2022-09-30T05:21:00.339Z,97733.63
2022-09-30T05:23:28.200Z,97744.56
2022-09-30T05:25:55.138Z,97743.75
2022-09-30T05:28:22.117Z,97749.47
2022-09-30T05:30:50.713Z,97741.28
2022-09-30T05:33:17.626Z,97748.91
2022-09-30T05:35:44.597Z,97749.72
2022-09-30T05:38:11.660Z,97743.44
2022-09-30T05:40:41.747Z,97746.16
2022-09-30T05:43:08.769Z,97750.84
2022-09-30T05:45:35.661Z,97747.28
2022-09-30T05:48:02.898Z,97757.41
2022-09-30T05:50:30.022Z,97751.09
2022-09-30T05:52:57.753Z,97752.75
2022-09-30T05:55:24.681Z,97747.28
2022-09-30T05:57:51.798Z,97755.50
2022-09-30T06:00:19.104Z,97758.22
2022-09-30T06:02:46.146Z,97759.84
2022-09-30T06:05:13.298Z,97758.22
2022-09-30T06:07:40.213Z,97762.59
2022-09-30T06:10:08.223Z,97759.84
2022-09-30T06:12:36.491Z,97762.59
2022-09-30T06:15:03.520Z,97771.91
2022-09-30T06:17:30.414Z,97762.88
2022-09-30T06:19:57.427Z,97765.84
2022-09-30T06:22:24.347Z,97761.22
2022-09-30T06:24:54.954Z,97768.59
2022-09-30T06:27:22.351Z,97768.59
2022-09-30T06:29:49.636Z,97769.41
2022-09-30T06:32:17.514Z,97772.16
2022-09-30T06:34:45.156Z,97777.06
2022-09-30T06:37:14.005Z,97782.53
2022-09-30T06:39:42.031Z,97784.47
2022-09-30T06:42:08.959Z,97791.53
2022-09-30T06:44:46.616Z,97791.53
2022-09-30T06:47:25.298Z,97795.94
2022-09-30T06:49:53.393Z,97795.69
2022-09-30T06:52:20.562Z,97792.94
2022-09-30T06:54:47.641Z,97793.78
2022-09-30T06:57:14.644Z,97794.59
2022-09-30T06:59:41.540Z,97793.47
2022-09-30T07:02:10.416Z,97806.34
2022-09-30T07:04:37.447Z,97809.06
2022-09-30T07:07:04.411Z,97805.53
2022-09-30T07:09:32.321Z,97806.63
2022-09-30T07:11:59.287Z,97807.44
2022-09-30T07:14:26.277Z,97805.78
2022-09-30T07:16:53.624Z,97807.44
2022-09-30T07:19:23.668Z,97803.59
2022-09-30T07:21:50.860Z,97810.72
2022-09-30T07:24:18.252Z,97812.94
2022-09-30T07:26:45.625Z,97816.22
2022-09-30T07:29:14.100Z,97817.03
2022-09-30T07:31:41.384Z,97818.94
2022-09-30T07:34:08.979Z,97813.47
2022-09-30T07:36:38.051Z,97825.25
2022-09-30T07:39:06.793Z,97818.94
2022-09-30T07:41:36.195Z,97816.22
2022-09-30T07:44:03.212Z,97816.78
2022-09-30T07:46:31.248Z,97821.13
2022-09-30T07:49:01.127Z,97831.00
2022-09-30T07:51:39.264Z,97829.09
2022-09-30T07:54:08.345Z,97820.88
2022-09-30T07:56:57.905Z,97832.66
2022-09-30T07:59:23.806Z,97836.47
2022-09-30T08:01:51.193Z,97828.00
2022-09-30T08:04:18.694Z,97828.25
2022-09-30T08:06:47.636Z,97824.44
2022-09-30T08:09:15.936Z,97832.66
2022-09-30T08:11:43.273Z,97831.81
2022-09-30T08:14:16.584Z,97838.38
2022-09-30T08:16:43.583Z,97835.63
2022-09-30T08:19:16.897Z,97847.41
2022-09-30T08:21:44.417Z,97845.75
2022-09-30T08:24:11.648Z,97845.50
2022-09-30T08:26:38.869Z,97844.66
2022-09-30T08:29:06.101Z,97847.41
2022-09-30T08:31:35.979Z,97854.53
2022-09-30T08:34:03.545Z,97858.34
2022-09-30T08:36:30.586Z,97848.22
2022-09-30T08:38:57.651Z,97858.34
2022-09-30T08:41:39.698Z,97852.88
2022-09-30T08:44:20.419Z,97861.09
2022-09-30T08:47:13.205Z,97849.31
2022-09-30T08:49:58.450Z,97856.69
2022-09-30T08:52:48.030Z,97855.06
2022-09-30T08:55:35.010Z,97859.72
2022-09-30T08:58:02.000Z,97860.22
2022-09-30T09:00:28.893Z,97853.97
2022-09-30T09:02:57.965Z,97859.94
2022-09-30T09:05:51.574Z,97862.13
2022-09-30T09:08:44.077Z,97854.47
2022-09-30T09:11:30.600Z,97873.09
2022-09-30T09:14:05.666Z,97865.44
2022-09-30T09:16:36.113Z,97867.09
2022-09-30T09:19:11.108Z,97864.34
2022-09-30T09:21:51.882Z,97871.47
2022-09-30T09:24:20.880Z,97866.00
2022-09-30T09:26:47.929Z,97875.84
2022-09-30T09:29:38.686Z,97870.38
2022-09-30T09:32:17.835Z,97874.75
2022-09-30T09:34:46.378Z,97875.03
2022-09-30T09:37:19.402Z,97868.75
2022-09-30T09:39:49.383Z,97871.47
2022-09-30T09:42:43.710Z,97869.81
2022-09-30T09:45:45.819Z,97877.19
2022-09-30T09:48:15.975Z,97884.59
2022-09-30T09:51:06.634Z,97886.50
2022-09-30T09:53:47.606Z,97888.41
2022-09-30T09:56:19.480Z,97888.41
2022-09-30T09:59:13.462Z,97894.97
2022-09-30T10:01:46.377Z,97895.78
2022-09-30T10:04:27.789Z,97887.56
2022-09-30T10:07:01.977Z,97896.06
2022-09-30T10:09:39.061Z,97892.50
2022-09-30T10:12:05.925Z,97893.31
2022-09-30T10:14:35.608Z,97896.88
2022-09-30T10:17:03.779Z,97892.25
2022-09-30T10:19:31.872Z,97893.31
2022-09-30T10:22:12.135Z,97897.72
2022-09-30T10:24:39.678Z,97902.34
2022-09-30T10:27:32.187Z,97899.88
2022-09-30T10:29:59.124Z,97902.88
2022-09-30T10:32:26.087Z,97903.97
2022-09-30T10:35:01.263Z,97894.13
2022-09-30T10:37:28.202Z,97914.09
2022-09-30T10:40:01.622Z,97908.88
2022-09-30T10:42:30.001Z,97915.41
2022-09-30T10:45:02.603Z,97915.41
2022-09-30T10:47:34.087Z,97918.16
2022-09-30T10:50:11.766Z,97924.44
2022-09-30T10:52:44.831Z,97919.81
2022-09-30T10:55:20.615Z,97918.97
2022-09-30T10:57:48.264Z,97927.19
2022-09-30T11:00:18.839Z,97930.75
2022-09-30T11:03:06.229Z,97920.88
2022-09-30T11:05:43.959Z,97932.66
2022-09-30T11:08:44.567Z,97935.38
2022-09-30T11:11:27.489Z,97934.56
2022-09-30T11:14:02.353Z,97935.38
2022-09-30T11:16:41.874Z,97932.66
2022-09-30T11:19:29.250Z,97939.19
2022-09-30T11:22:31.679Z,97943.03
2022-09-30T11:24:58.715Z,97941.09
2022-09-30T11:27:40.708Z,97941.94
2022-09-30T11:30:30.558Z,97951.25
2022-09-30T11:33:14.232Z,97948.50
2022-09-30T11:36:10.364Z,97956.72
2022-09-30T11:38:50.816Z,97952.03
2022-09-30T11:41:23.286Z,97957.50
2022-09-30T11:44:05.902Z,97958.34
2022-09-30T11:46:54.063Z,97954.78
2022-09-30T11:49:33.155Z,97955.59
2022-09-30T11:52:25.369Z,97955.59
2022-09-30T11:54:55.339Z,97961.91
2022-09-30T11:57:44.653Z,97961.06
2022-09-30T12:00:18.893Z,97963.81
2022-09-30T12:02:56.155Z,97961.91
2022-09-30T12:05:43.759Z,97963.81
2022-09-30T12:08:17.438Z,97961.91
2022-09-30T12:11:00.873Z,97964.63
2022-09-30T12:13:52.382Z,97966.53
2022-09-30T12:16:24.186Z,97972.00
2022-09-30T12:18:57.548Z,97972.00
2022-09-30T12:21:37.803Z,97977.47
2022-09-30T12:24:12.548Z,97969.84
2022-09-30T12:26:40.273Z,97969.84
2022-09-30T12:29:48.009Z,97971.50
2022-09-30T12:32:37.579Z,97976.69
2022-09-30T12:35:23.167Z,97975.88
2022-09-30T12:38:04.946Z,97984.06
2022-09-30T12:40:43.740Z,97980.25
2022-09-30T12:43:34.622Z,97991.47
2022-09-30T12:46:22.356Z,97990.38
2022-09-30T12:48:58.316Z,97989.53
2022-09-30T12:51:31.856Z,97992.28
2022-09-30T12:54:22.859Z,97996.38
2022-09-30T12:56:55.136Z,98005.41
2022-09-30T12:59:30.384Z,98006.22
2022-09-30T13:01:58.254Z,98005.41
2022-09-30T13:04:33.447Z,98009.22
2022-09-30T13:07:00.330Z,98011.94
2022-09-30T13:09:52.258Z,98016.59
2022-09-30T13:12:25.793Z,98021.22
2022-09-30T13:15:18.819Z,98031.34
2022-09-30T13:17:46.148Z,98031.34
2022-09-30T13:20:51.099Z,98025.06
2022-09-30T13:23:47.544Z,98028.59
2022-09-30T13:26:29.471Z,98032.44
2022-09-30T13:29:22.115Z,98023.41
2022-09-30T13:31:49.412Z,98026.41
2022-09-30T13:34:33.005Z,98030.22
2022-09-30T13:37:04.222Z,98030.22
2022-09-30T13:39:48.233Z,98030.75
2022-09-30T13:42:22.144Z,98032.66
2022-09-30T13:45:21.911Z,98023.91
2022-09-30T13:47:48.773Z,98027.72
2022-09-30T13:50:27.814Z,98035.91
2022-09-30T13:52:56.883Z,98039.72
2022-09-30T13:55:34.421Z,98040.78
2022-09-30T13:58:12.082Z,98043.50
2022-09-30T14:00:47.204Z,98039.72
2022-09-30T14:03:42.410Z,98044.94
2022-09-30T14:06:42.218Z,98041.94
2022-09-30T14:09:39.060Z,98039.19
2022-09-30T14:12:18.629Z,98039.19
2022-09-30T14:14:45.462Z,98033.72
2022-09-30T14:17:45.927Z,98031.00
2022-09-30T14:20:28.219Z,98039.19
2022-09-30T14:22:55.828Z,98032.09
2022-09-30T14:25:23.301Z,98033.72
2022-09-30T14:28:08.633Z,98028.25
2022-09-30T14:31:03.094Z,98033.72
2022-09-30T14:33:31.798Z,98029.38
2022-09-30T14:36:19.249Z,98032.09
2022-09-30T14:39:06.349Z,98027.72
2022-09-30T14:41:34.946Z,98036.91
2022-09-30T14:44:08.335Z,98042.28
2022-09-30T14:46:39.802Z,98048.16
2022-09-30T14:49:09.790Z,98048.56
2022-09-30T14:51:44.949Z,98052.28
2022-09-30T14:54:19.968Z,98052.72
2022-09-30T14:56:47.146Z,98051.91
2022-09-30T14:59:27.854Z,98051.16
2022-09-30T15:02:02.760Z,98048.44
2022-09-30T15:04:32.058Z,98064.91
2022-09-30T15:07:00.671Z,98058.94
2022-09-30T15:09:30.081Z,98068.28
2022-09-30T15:11:58.499Z,98081.66
2022-09-30T15:14:25.448Z,98080.34
2022-09-30T15:16:59.390Z,98083.63
2022-09-30T15:19:35.179Z,98091.56
2022-09-30T15:22:03.805Z,98092.41
2022-09-30T15:24:31.583Z,98096.78
2022-09-30T15:26:58.982Z,98090.50
2022-09-30T15:29:26.070Z,98083.13
2022-09-30T15:32:02.528Z,98084.78
2022-09-30T15:34:30.633Z,98089.44
2022-09-30T15:37:06.951Z,98084.78
2022-09-30T15:40:05.538Z,98101.19
2022-09-30T15:42:32.517Z,98097.34
2022-09-30T15:44:59.627Z,98092.72
2022-09-30T15:47:27.323Z,98095.44
2022-09-30T15:49:54.393Z,98091.88
2022-09-30T15:52:24.215Z,98094.38
2022-09-30T15:54:51.250Z,98106.13
2022-09-30T15:57:51.499Z,98111.59
2022-09-30T16:00:36.387Z,98114.31
2022-09-30T16:03:19.429Z,98118.13
2022-09-30T16:05:48.727Z,98114.31
2022-09-30T16:08:48.217Z,98120.34
2022-09-30T16:11:24.628Z,98129.66
2022-09-30T16:13:51.610Z,98128.00
2022-09-30T16:16:23.297Z,98122.53
2022-09-30T16:18:50.478Z,98122.53
2022-09-30T16:21:45.021Z,98114.31
2022-09-30T16:24:30.557Z,98118.72
2022-09-30T16:26:58.666Z,98111.59
2022-09-30T16:29:26.599Z,98125.25
2022-09-30T16:31:56.956Z,98132.63
2022-09-30T16:34:27.970Z,98138.91
2022-09-30T16:37:05.964Z,98140.56
2022-09-30T16:39:32.886Z,98140.56
2022-09-30T16:41:59.838Z,98138.91
2022-09-30T16:44:26.740Z,98136.19
2022-09-30T16:46:53.753Z,98136.19
2022-09-30T16:49:20.875Z,98138.69
2022-09-30T16:51:47.786Z,98146.88
2022-09-30T16:54:14.728Z,98151.50
2022-09-30T16:56:41.679Z,98155.31
2022-09-30T16:59:13.670Z,98151.50
2022-09-30T17:01:40.939Z,98155.31
2022-09-30T17:04:08.094Z,98142.47
2022-09-30T17:06:35.558Z,98143.56
2022-09-30T17:09:03.055Z,98134.53
2022-09-30T17:11:33.662Z,98135.59
2022-09-30T17:14:00.957Z,98131.78
2022-09-30T17:16:28.316Z,98133.44
2022-09-30T17:18:55.304Z,98128.22
2022-09-30T17:21:24.160Z,98159.94
2022-09-30T17:23:51.307Z,98149.03
2022-09-30T17:26:18.843Z,98162.69
2022-09-30T17:28:46.418Z,98165.41
2022-09-30T17:31:13.550Z,98165.41
2022-09-30T17:33:40.849Z,98157.47
2022-09-30T17:36:12.746Z,98170.06
2022-09-30T17:38:39.781Z,98175.53
2022-09-30T17:41:25.953Z,98177.41
2022-09-30T17:43:52.929Z,98180.16
2022-09-30T17:46:23.520Z,98179.31
2022-09-30T17:48:51.440Z,98197.38
2022-09-30T17:51:18.415Z,98190.25
2022-09-30T17:53:45.847Z,98193.00
2022-09-30T17:56:19.718Z,98197.38
2022-09-30T17:58:48.026Z,98200.34
2022-09-30T18:01:21.007Z,98196.81
2022-09-30T18:03:48.338Z,98198.44
2022-09-30T18:06:15.618Z,98194.09
2022-09-30T18:08:43.861Z,98196.81
2022-09-30T18:11:11.741Z,98194.88
2022-09-30T18:13:40.756Z,98205.81
2022-09-30T18:16:08.338Z,98209.66
2022-09-30T18:18:36.124Z,98215.13
2022-09-30T18:21:04.029Z,98216.75
2022-09-30T18:23:31.195Z,98218.69
2022-09-30T18:25:58.753Z,98215.97
2022-09-30T18:28:27.108Z,98216.75
2022-09-30T18:30:54.341Z,98224.16
2022-09-30T18:33:22.575Z,98226.06
2022-09-30T18:35:51.441Z,98231.53
2022-09-30T18:38:19.027Z,98227.97
2022-09-30T18:40:46.374Z,98239.72
2022-09-30T18:43:17.200Z,98241.63
2022-09-30T18:45:44.524Z,98233.44
2022-09-30T18:48:13.306Z,98228.78
2022-09-30T18:50:40.698Z,98227.97
2022-09-30T18:53:10.217Z,98241.63
2022-09-30T18:55:41.775Z,98243.28
2022-09-30T18:58:10.560Z,98241.63
2022-09-30T19:00:38.017Z,98243.28
2022-09-30T19:03:05.463Z,98237.00
2022-09-30T19:05:33.081Z,98246.81
2022-09-30T19:08:05.000Z,98247.91
2022-09-30T19:10:32.242Z,98247.09
2022-09-30T19:13:01.661Z,98244.34
2022-09-30T19:15:31.381Z,98236.16
2022-09-30T19:17:59.197Z,98234.25
2022-09-30T19:20:28.509Z,98234.50
2022-09-30T19:22:55.526Z,98233.66
2022-09-30T19:25:24.082Z,98223.56
2022-09-30T19:27:55.946Z,98234.50
2022-09-30T19:30:25.451Z,98228.19
2022-09-30T19:32:59.531Z,98239.13
2022-09-30T19:35:40.136Z,98226.53
2022-09-30T19:38:34.905Z,98225.47
2022-09-30T19:41:05.044Z,98233.66
2022-09-30T19:43:32.212Z,98236.41
2022-09-30T19:46:01.255Z,98243.75
2022-09-30T19:48:29.910Z,98242.69
2022-09-30T19:51:04.584Z,98245.44
2022-09-30T19:53:32.618Z,98238.31
2022-09-30T19:56:23.518Z,98239.38
2022-09-30T19:59:00.379Z,98226.53
2022-09-30T20:01:30.276Z,98222.97
2022-09-30T20:04:00.518Z,98231.19
2022-09-30T20:06:28.337Z,98237.47
2022-09-30T20:09:00.494Z,98238.31
2022-09-30T20:11:30.059Z,98226.53
2022-09-30T20:14:16.317Z,98236.63
2022-09-30T20:16:49.910Z,98245.94
2022-09-30T20:19:20.273Z,98250.31
2022-09-30T20:21:48.176Z,98246.78
2022-09-30T20:24:16.413Z,98251.41
2022-09-30T20:26:43.966Z,98257.69
2022-09-30T20:29:11.590Z,98251.41
2022-09-30T20:31:42.331Z,98260.16
2022-09-30T20:34:12.005Z,98264.81
2022-09-30T20:36:40.527Z,98268.34
2022-09-30T20:39:08.125Z,98264.81
2022-09-30T20:41:37.228Z,98247.56
2022-09-30T20:44:08.700Z,98241.31
2022-09-30T20:46:35.746Z,98236.63
2022-09-30T20:49:02.950Z,98242.09
2022-09-30T20:51:30.977Z,98237.75
2022-09-30T20:53:58.664Z,98256.88
2022-09-30T20:56:26.856Z,98251.41
2022-09-30T20:58:55.099Z,98242.38
2022-09-30T21:01:23.327Z,98236.09
2022-09-30T21:03:51.895Z,98233.34
2022-09-30T21:06:25.506Z,98233.34
2022-09-30T21:08:53.071Z,98238.00
2022-09-30T21:11:22.502Z,98244.28
2022-09-30T21:13:53.073Z,98247.00
2022-09-30T21:16:21.877Z,98247.84
2022-09-30T21:18:52.076Z,98244.28
2022-09-30T21:21:19.898Z,98242.63
2022-09-30T21:23:46.873Z,98247.00
2022-09-30T21:26:15.174Z,98237.16
2022-09-30T21:28:45.581Z,98228.97
2022-09-30T21:31:18.732Z,98228.97
2022-09-30T21:33:49.377Z,98234.44
2022-09-30T21:36:16.474Z,98231.69
2022-09-30T21:38:43.485Z,98235.25
2022-09-30T21:41:10.452Z,98231.69
2022-09-30T21:43:37.762Z,98230.84
2022-09-30T21:46:06.681Z,98231.69
2022-09-30T21:48:33.900Z,98226.22
2022-09-30T21:51:01.004Z,98230.84
2022-09-30T21:53:28.136Z,98239.06
2022-09-30T21:55:55.889Z,98240.97
2022-09-30T21:58:24.177Z,98240.13
2022-09-30T22:00:51.944Z,98240.97
2022-09-30T22:03:18.970Z,98244.78
2022-09-30T22:05:55.173Z,98251.88
2022-09-30T22:08:22.710Z,98246.44
2022-09-30T22:10:51.270Z,98256.28
2022-09-30T22:13:18.664Z,98252.72
2022-09-30T22:15:46.612Z,98252.72
2022-09-30T22:18:17.519Z,98240.97
2022-09-30T22:20:45.027Z,98238.22
2022-09-30T22:23:12.184Z,98242.88
2022-09-30T22:25:39.209Z,98239.34
2022-09-30T22:28:06.219Z,98241.22
2022-09-30T22:30:33.400Z,98239.34
2022-09-30T22:33:18.603Z,98240.97
2022-09-30T22:36:04.278Z,98236.59
2022-09-30T22:38:31.390Z,98231.13
2022-09-30T22:40:59.836Z,98226.75
2022-09-30T22:43:27.195Z,98232.22
2022-09-30T22:46:04.232Z,98218.53
2022-09-30T22:48:31.407Z,98229.72
2022-09-30T22:50:58.710Z,98228.06
2022-09-30T22:53:26.266Z,98230.78
2022-09-30T22:55:53.296Z,98228.06
2022-09-30T22:58:21.249Z,98249.44
2022-09-30T23:00:58.836Z,98251.34
2022-09-30T23:03:25.944Z,98250.50
2022-09-30T23:05:53.415Z,98248.59
2022-09-30T23:08:20.372Z,98252.41
2022-09-30T23:10:50.016Z,98250.50
2022-09-30T23:13:22.467Z,98246.94
2022-09-30T23:15:49.456Z,98248.00
2022-09-30T23:18:17.393Z,98251.56
2022-09-30T23:20:59.912Z,98250.75
2022-09-30T23:23:29.039Z,98239.81
2022-09-30T23:26:00.869Z,98244.44
2022-09-30T23:28:27.960Z,98238.97
2022-09-30T23:30:55.028Z,98238.97
2022-09-30T23:33:22.004Z,98235.41
2022-09-30T23:35:49.036Z,98237.34
2022-09-30T23:38:16.039Z,98233.78
2022-09-30T23:40:45.275Z,98242.81
2022-09-30T23:43:12.195Z,98243.63
2022-09-30T23:45:39.251Z,98238.97
2022-09-30T23:48:06.285Z,98244.44
2022-09-30T23:50:33.658Z,98238.97
2022-09-30T23:53:00.743Z,98240.66
2022-09-30T23:55:28.554Z,98229.97
2022-09-30T23:57:56.927Z,98229.97
